sensor_id;sensor_type;location;lat;lon;timestamp;P1;durP1;ratioP1;P2;durP2;ratioP2
51332;SDS011;37417;48.118;11.734;2023-05-19T00:01:49;2.22;;;1.42;;
51332;SDS011;37417;48.118;11.734;2023-05-19T00:04:36;3.13;;;1.23;;
51332;SDS011;37417;48.118;11.734;2023-05-19T00:07:24;0.35;;;0.35;;
51332;SDS011;37417;48.118;11.734;2023-05-19T00:10:15;0.82;;;0.80;;
51332;SDS011;37417;48.118;11.734;2023-05-19T00:13:02;0.85;;;0.63;;
51332;SDS011;37417;48.118;11.734;2023-05-19T00:15:48;1.35;;;0.90;;
51332;SDS011;37417;48.118;11.734;2023-05-19T00:18:35;1.30;;;1.20;;
51332;SDS011;37417;48.118;11.734;2023-05-19T00:21:20;0.57;;;0.43;;
51332;SDS011;37417;48.118;11.734;2023-05-19T00:24:06;1.55;;;0.90;;
51332;SDS011;37417;48.118;11.734;2023-05-19T00:26:52;4.22;;;0.98;;
51332;SDS011;37417;48.118;11.734;2023-05-19T00:29:38;0.73;;;0.73;;
51332;SDS011;37417;48.118;11.734;2023-05-19T00:32:23;0.68;;;0.68;;
51332;SDS011;37417;48.118;11.734;2023-05-19T00:35:09;6.65;;;0.90;;
51332;SDS011;37417;48.118;11.734;2023-05-19T00:37:55;1.95;;;0.73;;
51332;SDS011;37417;48.118;11.734;2023-05-19T00:40:41;1.67;;;1.35;;
51332;SDS011;37417;48.118;11.734;2023-05-19T00:43:27;2.08;;;1.38;;
51332;SDS011;37417;48.118;11.734;2023-05-19T00:46:17;0.38;;;0.38;;
51332;SDS011;37417;48.118;11.734;2023-05-19T00:49:03;2.40;;;1.05;;
51332;SDS011;37417;48.118;11.734;2023-05-19T00:51:49;0.73;;;0.65;;
51332;SDS011;37417;48.118;11.734;2023-05-19T00:54:34;1.08;;;1.02;;
51332;SDS011;37417;48.118;11.734;2023-05-19T00:57:20;1.92;;;1.15;;
51332;SDS011;37417;48.118;11.734;2023-05-19T01:00:06;2.05;;;1.58;;
51332;SDS011;37417;48.118;11.734;2023-05-19T01:02:53;6.63;;;1.83;;
51332;SDS011;37417;48.118;11.734;2023-05-19T01:05:40;1.27;;;1.02;;
51332;SDS011;37417;48.118;11.734;2023-05-19T01:08:26;2.22;;;1.10;;
51332;SDS011;37417;48.118;11.734;2023-05-19T01:11:13;1.10;;;1.00;;
51332;SDS011;37417;48.118;11.734;2023-05-19T01:13:59;0.95;;;0.57;;
51332;SDS011;37417;48.118;11.734;2023-05-19T01:16:49;4.03;;;0.90;;
51332;SDS011;37417;48.118;11.734;2023-05-19T01:32:23;5.78;;;1.08;;
51332;SDS011;37417;48.118;11.734;2023-05-19T01:35:09;0.88;;;0.60;;
51332;SDS011;37417;48.118;11.734;2023-05-19T01:37:57;0.68;;;0.68;;
51332;SDS011;37417;48.118;11.734;2023-05-19T01:40:45;0.50;;;0.50;;
51332;SDS011;37417;48.118;11.734;2023-05-19T01:43:32;1.45;;;0.90;;
51332;SDS011;37417;48.118;11.734;2023-05-19T01:46:18;2.33;;;1.13;;
51332;SDS011;37417;48.118;11.734;2023-05-19T01:49:05;1.40;;;1.30;;
51332;SDS011;37417;48.118;11.734;2023-05-19T01:51:52;2.47;;;0.93;;
51332;SDS011;37417;48.118;11.734;2023-05-19T01:54:37;2.95;;;0.93;;
51332;SDS011;37417;48.118;11.734;2023-05-19T01:57:27;0.60;;;0.60;;
51332;SDS011;37417;48.118;11.734;2023-05-19T02:04:00;0.65;;;0.65;;
51332;SDS011;37417;48.118;11.734;2023-05-19T02:06:57;5.78;;;1.38;;
51332;SDS011;37417;48.118;11.734;2023-05-19T02:12:56;0.93;;;0.50;;
51332;SDS011;37417;48.118;11.734;2023-05-19T02:15:45;1.58;;;1.15;;
51332;SDS011;37417;48.118;11.734;2023-05-19T02:18:32;3.60;;;1.13;;
51332;SDS011;37417;48.118;11.734;2023-05-19T02:21:19;1.83;;;1.30;;
51332;SDS011;37417;48.118;11.734;2023-05-19T02:24:05;1.50;;;1.40;;
51332;SDS011;37417;48.118;11.734;2023-05-19T02:26:51;1.70;;;1.35;;
51332;SDS011;37417;48.118;11.734;2023-05-19T02:29:38;1.50;;;1.25;;
51332;SDS011;37417;48.118;11.734;2023-05-19T02:32:23;1.60;;;0.65;;
51332;SDS011;37417;48.118;11.734;2023-05-19T02:35:09;0.82;;;0.82;;
51332;SDS011;37417;48.118;11.734;2023-05-19T02:37:55;0.88;;;0.82;;
51332;SDS011;37417;48.118;11.734;2023-05-19T02:40:40;0.90;;;0.90;;
51332;SDS011;37417;48.118;11.734;2023-05-19T02:43:26;4.72;;;0.85;;
51332;SDS011;37417;48.118;11.734;2023-05-19T02:46:14;1.35;;;1.00;;
51332;SDS011;37417;48.118;11.734;2023-05-19T02:49:00;0.68;;;0.65;;
51332;SDS011;37417;48.118;11.734;2023-05-19T02:51:46;0.65;;;0.52;;
51332;SDS011;37417;48.118;11.734;2023-05-19T02:54:32;1.15;;;0.98;;
51332;SDS011;37417;48.118;11.734;2023-05-19T02:57:18;0.47;;;0.47;;
51332;SDS011;37417;48.118;11.734;2023-05-19T03:00:04;1.88;;;1.30;;
51332;SDS011;37417;48.118;11.734;2023-05-19T03:02:51;1.67;;;1.20;;
51332;SDS011;37417;48.118;11.734;2023-05-19T03:05:37;2.40;;;0.95;;
51332;SDS011;37417;48.118;11.734;2023-05-19T03:08:22;0.73;;;0.68;;
51332;SDS011;37417;48.118;11.734;2023-05-19T03:11:08;0.90;;;0.90;;
51332;SDS011;37417;48.118;11.734;2023-05-19T03:13:54;1.60;;;1.02;;
51332;SDS011;37417;48.118;11.734;2023-05-19T03:16:39;1.67;;;0.70;;
51332;SDS011;37417;48.118;11.734;2023-05-19T03:19:26;2.05;;;1.25;;
51332;SDS011;37417;48.118;11.734;2023-05-19T03:22:11;2.22;;;1.08;;
51332;SDS011;37417;48.118;11.734;2023-05-19T03:24:57;3.95;;;1.63;;
51332;SDS011;37417;48.118;11.734;2023-05-19T03:27:43;6.18;;;1.00;;
51332;SDS011;37417;48.118;11.734;2023-05-19T03:30:29;0.80;;;0.80;;
51332;SDS011;37417;48.118;11.734;2023-05-19T03:33:14;1.73;;;1.20;;
51332;SDS011;37417;48.118;11.734;2023-05-19T03:36:01;8.25;;;1.92;;
51332;SDS011;37417;48.118;11.734;2023-05-19T03:38:48;1.38;;;0.63;;
51332;SDS011;37417;48.118;11.734;2023-05-19T03:41:34;1.77;;;1.45;;
51332;SDS011;37417;48.118;11.734;2023-05-19T03:44:19;0.88;;;0.88;;
51332;SDS011;37417;48.118;11.734;2023-05-19T03:47:05;1.05;;;1.02;;
51332;SDS011;37417;48.118;11.734;2023-05-19T03:49:51;0.60;;;0.60;;
51332;SDS011;37417;48.118;11.734;2023-05-19T03:52:36;0.75;;;0.68;;
51332;SDS011;37417;48.118;11.734;2023-05-19T03:55:24;7.22;;;1.05;;
51332;SDS011;37417;48.118;11.734;2023-05-19T03:58:10;1.35;;;1.25;;
51332;SDS011;37417;48.118;11.734;2023-05-19T04:00:55;0.55;;;0.55;;
51332;SDS011;37417;48.118;11.734;2023-05-19T04:03:41;0.55;;;0.52;;
51332;SDS011;37417;48.118;11.734;2023-05-19T04:06:26;1.15;;;1.05;;
51332;SDS011;37417;48.118;11.734;2023-05-19T04:09:12;1.05;;;0.98;;
51332;SDS011;37417;48.118;11.734;2023-05-19T04:11:59;1.02;;;0.80;;
51332;SDS011;37417;48.118;11.734;2023-05-19T04:14:45;4.93;;;1.25;;
51332;SDS011;37417;48.118;11.734;2023-05-19T04:17:31;1.45;;;1.25;;
51332;SDS011;37417;48.118;11.734;2023-05-19T04:20:16;2.97;;;1.33;;
51332;SDS011;37417;48.118;11.734;2023-05-19T04:23:02;4.47;;;1.05;;
51332;SDS011;37417;48.118;11.734;2023-05-19T04:25:48;4.70;;;2.47;;
51332;SDS011;37417;48.118;11.734;2023-05-19T04:28:34;8.05;;;2.60;;
51332;SDS011;37417;48.118;11.734;2023-05-19T04:31:23;3.72;;;1.75;;
51332;SDS011;37417;48.118;11.734;2023-05-19T04:34:09;0.95;;;0.95;;
51332;SDS011;37417;48.118;11.734;2023-05-19T04:36:55;0.95;;;0.85;;
51332;SDS011;37417;48.118;11.734;2023-05-19T04:39:41;0.85;;;0.82;;
51332;SDS011;37417;48.118;11.734;2023-05-19T04:42:28;1.35;;;1.25;;
51332;SDS011;37417;48.118;11.734;2023-05-19T04:45:14;0.90;;;0.90;;
51332;SDS011;37417;48.118;11.734;2023-05-19T04:48:00;6.90;;;1.80;;
51332;SDS011;37417;48.118;11.734;2023-05-19T04:50:46;1.05;;;0.95;;
51332;SDS011;37417;48.118;11.734;2023-05-19T04:53:33;1.13;;;0.85;;
51332;SDS011;37417;48.118;11.734;2023-05-19T04:56:19;3.25;;;0.98;;
51332;SDS011;37417;48.118;11.734;2023-05-19T04:59:04;1.15;;;0.90;;
51332;SDS011;37417;48.118;11.734;2023-05-19T05:01:51;0.90;;;0.90;;
51332;SDS011;37417;48.118;11.734;2023-05-19T05:04:36;1.48;;;0.90;;
51332;SDS011;37417;48.118;11.734;2023-05-19T05:07:24;0.60;;;0.55;;
51332;SDS011;37417;48.118;11.734;2023-05-19T05:10:10;1.33;;;1.23;;
51332;SDS011;37417;48.118;11.734;2023-05-19T05:12:56;2.65;;;1.65;;
51332;SDS011;37417;48.118;11.734;2023-05-19T05:15:42;0.98;;;0.70;;
51332;SDS011;37417;48.118;11.734;2023-05-19T05:18:28;3.38;;;1.15;;
51332;SDS011;37417;48.118;11.734;2023-05-19T05:21:13;2.30;;;1.92;;
51332;SDS011;37417;48.118;11.734;2023-05-19T05:23:59;1.55;;;1.15;;
51332;SDS011;37417;48.118;11.734;2023-05-19T05:26:45;1.48;;;1.25;;
51332;SDS011;37417;48.118;11.734;2023-05-19T05:29:31;1.83;;;1.08;;
51332;SDS011;37417;48.118;11.734;2023-05-19T05:32:17;0.40;;;0.40;;
51332;SDS011;37417;48.118;11.734;2023-05-19T05:35:02;1.73;;;1.63;;
51332;SDS011;37417;48.118;11.734;2023-05-19T05:37:48;3.83;;;2.72;;
51332;SDS011;37417;48.118;11.734;2023-05-19T05:40:34;2.42;;;1.88;;
51332;SDS011;37417;48.118;11.734;2023-05-19T05:43:20;0.75;;;0.73;;
51332;SDS011;37417;48.118;11.734;2023-05-19T05:46:05;2.58;;;1.48;;
51332;SDS011;37417;48.118;11.734;2023-05-19T05:48:51;1.05;;;0.95;;
51332;SDS011;37417;48.118;11.734;2023-05-19T05:51:37;2.17;;;1.02;;
51332;SDS011;37417;48.118;11.734;2023-05-19T05:54:23;1.30;;;1.20;;
51332;SDS011;37417;48.118;11.734;2023-05-19T05:57:09;0.70;;;0.60;;
51332;SDS011;37417;48.118;11.734;2023-05-19T05:59:55;2.13;;;0.77;;
51332;SDS011;37417;48.118;11.734;2023-05-19T06:02:43;2.42;;;1.25;;
51332;SDS011;37417;48.118;11.734;2023-05-19T06:05:31;1.92;;;1.13;;
51332;SDS011;37417;48.118;11.734;2023-05-19T06:08:17;2.33;;;1.20;;
51332;SDS011;37417;48.118;11.734;2023-05-19T06:11:02;2.83;;;1.10;;
51332;SDS011;37417;48.118;11.734;2023-05-19T06:13:53;1.77;;;1.33;;
51332;SDS011;37417;48.118;11.734;2023-05-19T06:16:38;1.13;;;1.02;;
51332;SDS011;37417;48.118;11.734;2023-05-19T06:19:24;1.73;;;1.40;;
51332;SDS011;37417;48.118;11.734;2023-05-19T06:22:10;1.60;;;1.10;;
51332;SDS011;37417;48.118;11.734;2023-05-19T06:24:56;1.60;;;0.95;;
51332;SDS011;37417;48.118;11.734;2023-05-19T06:27:41;4.18;;;1.70;;
51332;SDS011;37417;48.118;11.734;2023-05-19T06:30:27;4.63;;;1.15;;
51332;SDS011;37417;48.118;11.734;2023-05-19T06:33:13;1.70;;;1.15;;
51332;SDS011;37417;48.118;11.734;2023-05-19T06:35:58;4.22;;;0.80;;
51332;SDS011;37417;48.118;11.734;2023-05-19T06:38:44;1.38;;;1.20;;
51332;SDS011;37417;48.118;11.734;2023-05-19T06:41:29;1.45;;;0.98;;
51332;SDS011;37417;48.118;11.734;2023-05-19T06:44:15;1.90;;;0.75;;
51332;SDS011;37417;48.118;11.734;2023-05-19T06:47:01;1.27;;;1.10;;
51332;SDS011;37417;48.118;11.734;2023-05-19T06:49:46;0.90;;;0.75;;
51332;SDS011;37417;48.118;11.734;2023-05-19T06:52:39;4.32;;;1.35;;
51332;SDS011;37417;48.118;11.734;2023-05-19T06:55:25;2.20;;;0.77;;
51332;SDS011;37417;48.118;11.734;2023-05-19T06:58:11;1.30;;;1.08;;
51332;SDS011;37417;48.118;11.734;2023-05-19T07:00:56;0.63;;;0.50;;
51332;SDS011;37417;48.118;11.734;2023-05-19T07:03:42;2.85;;;1.10;;
51332;SDS011;37417;48.118;11.734;2023-05-19T07:06:28;1.63;;;1.25;;
51332;SDS011;37417;48.118;11.734;2023-05-19T07:09:13;4.53;;;1.23;;
51332;SDS011;37417;48.118;11.734;2023-05-19T07:11:59;3.03;;;1.60;;
51332;SDS011;37417;48.118;11.734;2023-05-19T07:14:45;1.33;;;0.90;;
51332;SDS011;37417;48.118;11.734;2023-05-19T07:17:31;0.75;;;0.73;;
51332;SDS011;37417;48.118;11.734;2023-05-19T07:20:16;2.42;;;0.90;;
51332;SDS011;37417;48.118;11.734;2023-05-19T07:23:02;1.23;;;0.63;;
51332;SDS011;37417;48.118;11.734;2023-05-19T07:25:52;0.88;;;0.80;;
51332;SDS011;37417;48.118;11.734;2023-05-19T07:28:39;2.05;;;1.83;;
51332;SDS011;37417;48.118;11.734;2023-05-19T07:31:26;0.80;;;0.80;;
51332;SDS011;37417;48.118;11.734;2023-05-19T07:34:12;3.05;;;1.33;;
51332;SDS011;37417;48.118;11.734;2023-05-19T07:36:58;0.70;;;0.70;;
51332;SDS011;37417;48.118;11.734;2023-05-19T07:39:43;0.82;;;0.82;;
51332;SDS011;37417;48.118;11.734;2023-05-19T07:42:29;1.25;;;1.00;;
51332;SDS011;37417;48.118;11.734;2023-05-19T07:45:15;2.38;;;1.90;;
51332;SDS011;37417;48.118;11.734;2023-05-19T07:48:01;1.48;;;1.33;;
51332;SDS011;37417;48.118;11.734;2023-05-19T07:50:46;1.65;;;1.05;;
51332;SDS011;37417;48.118;11.734;2023-05-19T07:53:35;2.25;;;1.30;;
51332;SDS011;37417;48.118;11.734;2023-05-19T07:56:21;0.85;;;0.85;;
51332;SDS011;37417;48.118;11.734;2023-05-19T07:59:07;1.88;;;1.42;;
51332;SDS011;37417;48.118;11.734;2023-05-19T08:01:53;0.73;;;0.70;;
51332;SDS011;37417;48.118;11.734;2023-05-19T08:04:39;3.67;;;0.70;;
51332;SDS011;37417;48.118;11.734;2023-05-19T08:07:25;1.17;;;1.08;;
51332;SDS011;37417;48.118;11.734;2023-05-19T08:10:10;2.70;;;1.20;;
51332;SDS011;37417;48.118;11.734;2023-05-19T08:12:56;2.10;;;1.63;;
51332;SDS011;37417;48.118;11.734;2023-05-19T08:15:42;2.63;;;1.50;;
51332;SDS011;37417;48.118;11.734;2023-05-19T08:18:27;0.85;;;0.85;;
51332;SDS011;37417;48.118;11.734;2023-05-19T08:21:13;1.75;;;0.98;;
51332;SDS011;37417;48.118;11.734;2023-05-19T08:23:59;0.80;;;0.80;;
51332;SDS011;37417;48.118;11.734;2023-05-19T08:26:45;1.00;;;1.00;;
51332;SDS011;37417;48.118;11.734;2023-05-19T08:29:31;1.48;;;0.93;;
51332;SDS011;37417;48.118;11.734;2023-05-19T08:32:17;2.47;;;1.20;;
51332;SDS011;37417;48.118;11.734;2023-05-19T08:35:03;0.85;;;0.80;;
51332;SDS011;37417;48.118;11.734;2023-05-19T08:37:48;0.82;;;0.80;;
51332;SDS011;37417;48.118;11.734;2023-05-19T08:40:34;1.40;;;1.30;;
51332;SDS011;37417;48.118;11.734;2023-05-19T08:43:22;2.38;;;1.27;;
51332;SDS011;37417;48.118;11.734;2023-05-19T08:46:07;1.95;;;1.02;;
51332;SDS011;37417;48.118;11.734;2023-05-19T08:48:57;1.90;;;1.15;;
51332;SDS011;37417;48.118;11.734;2023-05-19T08:52:05;2.17;;;1.58;;
51332;SDS011;37417;48.118;11.734;2023-05-19T08:55:01;3.42;;;1.33;;
51332;SDS011;37417;48.118;11.734;2023-05-19T08:57:53;1.20;;;1.02;;
51332;SDS011;37417;48.118;11.734;2023-05-19T09:00:41;1.98;;;1.00;;
51332;SDS011;37417;48.118;11.734;2023-05-19T09:03:28;4.72;;;1.42;;
51332;SDS011;37417;48.118;11.734;2023-05-19T09:06:14;1.83;;;1.17;;
51332;SDS011;37417;48.118;11.734;2023-05-19T09:09:00;2.38;;;1.30;;
51332;SDS011;37417;48.118;11.734;2023-05-19T09:11:45;0.70;;;0.68;;
51332;SDS011;37417;48.118;11.734;2023-05-19T09:14:31;0.95;;;0.80;;
51332;SDS011;37417;48.118;11.734;2023-05-19T09:17:17;1.52;;;1.02;;
51332;SDS011;37417;48.118;11.734;2023-05-19T09:20:03;1.17;;;1.00;;
51332;SDS011;37417;48.118;11.734;2023-05-19T09:22:55;2.08;;;1.60;;
51332;SDS011;37417;48.118;11.734;2023-05-19T09:28:36;1.23;;;1.08;;
51332;SDS011;37417;48.118;11.734;2023-05-19T09:31:22;2.08;;;1.45;;
51332;SDS011;37417;48.118;11.734;2023-05-19T09:34:11;2.25;;;1.85;;
51332;SDS011;37417;48.118;11.734;2023-05-19T09:36:57;1.25;;;1.15;;
51332;SDS011;37417;48.118;11.734;2023-05-19T09:39:44;3.90;;;1.50;;
51332;SDS011;37417;48.118;11.734;2023-05-19T09:42:35;2.67;;;1.92;;
51332;SDS011;37417;48.118;11.734;2023-05-19T09:45:22;1.20;;;1.10;;
51332;SDS011;37417;48.118;11.734;2023-05-19T09:48:12;2.10;;;1.58;;
51332;SDS011;37417;48.118;11.734;2023-05-19T09:51:00;2.33;;;2.13;;
51332;SDS011;37417;48.118;11.734;2023-05-19T09:53:46;1.50;;;1.40;;
51332;SDS011;37417;48.118;11.734;2023-05-19T09:56:35;2.20;;;1.83;;
51332;SDS011;37417;48.118;11.734;2023-05-19T09:59:24;1.17;;;1.15;;
51332;SDS011;37417;48.118;11.734;2023-05-19T10:02:12;1.55;;;1.45;;
51332;SDS011;37417;48.118;11.734;2023-05-19T10:05:01;1.58;;;1.48;;
51332;SDS011;37417;48.118;11.734;2023-05-19T10:07:49;1.98;;;1.25;;
51332;SDS011;37417;48.118;11.734;2023-05-19T10:10:36;2.17;;;1.10;;
51332;SDS011;37417;48.118;11.734;2023-05-19T10:13:22;2.92;;;1.30;;
51332;SDS011;37417;48.118;11.734;2023-05-19T10:16:09;1.90;;;0.90;;
51332;SDS011;37417;48.118;11.734;2023-05-19T10:18:56;2.63;;;2.00;;
51332;SDS011;37417;48.118;11.734;2023-05-19T10:21:43;2.20;;;1.42;;
51332;SDS011;37417;48.118;11.734;2023-05-19T10:24:29;2.60;;;1.55;;
51332;SDS011;37417;48.118;11.734;2023-05-19T10:27:15;1.85;;;1.70;;
51332;SDS011;37417;48.118;11.734;2023-05-19T10:30:04;2.83;;;1.50;;
51332;SDS011;37417;48.118;11.734;2023-05-19T10:32:55;2.45;;;2.13;;
51332;SDS011;37417;48.118;11.734;2023-05-19T10:41:49;2.25;;;1.58;;
51332;SDS011;37417;48.118;11.734;2023-05-19T10:44:52;3.42;;;2.83;;
51332;SDS011;37417;48.118;11.734;2023-05-19T10:47:45;1.38;;;1.13;;
51332;SDS011;37417;48.118;11.734;2023-05-19T10:50:36;3.63;;;1.98;;
51332;SDS011;37417;48.118;11.734;2023-05-19T10:59:31;2.30;;;1.30;;
51332;SDS011;37417;48.118;11.734;2023-05-19T11:02:35;2.90;;;2.13;;
51332;SDS011;37417;48.118;11.734;2023-05-19T11:05:29;1.35;;;1.25;;
51332;SDS011;37417;48.118;11.734;2023-05-19T11:08:15;3.45;;;2.55;;
51332;SDS011;37417;48.118;11.734;2023-05-19T11:11:14;3.40;;;2.35;;
51332;SDS011;37417;48.118;11.734;2023-05-19T11:14:01;2.60;;;1.83;;
51332;SDS011;37417;48.118;11.734;2023-05-19T11:16:48;2.33;;;1.90;;
51332;SDS011;37417;48.118;11.734;2023-05-19T11:19:35;2.33;;;2.13;;
51332;SDS011;37417;48.118;11.734;2023-05-19T11:22:22;3.08;;;2.00;;
51332;SDS011;37417;48.118;11.734;2023-05-19T11:25:10;2.05;;;1.70;;
51332;SDS011;37417;48.118;11.734;2023-05-19T11:27:55;3.85;;;1.98;;
51332;SDS011;37417;48.118;11.734;2023-05-19T11:30:42;3.78;;;2.20;;
51332;SDS011;37417;48.118;11.734;2023-05-19T11:33:29;4.63;;;2.83;;
51332;SDS011;37417;48.118;11.734;2023-05-19T11:36:16;1.58;;;1.48;;
51332;SDS011;37417;48.118;11.734;2023-05-19T11:39:03;4.20;;;2.90;;
51332;SDS011;37417;48.118;11.734;2023-05-19T11:41:50;2.70;;;2.30;;
51332;SDS011;37417;48.118;11.734;2023-05-19T11:44:36;2.42;;;1.92;;
51332;SDS011;37417;48.118;11.734;2023-05-19T11:47:22;2.92;;;1.77;;
51332;SDS011;37417;48.118;11.734;2023-05-19T11:50:09;3.45;;;1.92;;
51332;SDS011;37417;48.118;11.734;2023-05-19T11:53:00;2.13;;;1.77;;
51332;SDS011;37417;48.118;11.734;2023-05-19T11:55:46;3.50;;;2.28;;
51332;SDS011;37417;48.118;11.734;2023-05-19T11:58:32;1.75;;;1.63;;
51332;SDS011;37417;48.118;11.734;2023-05-19T12:01:22;4.07;;;3.20;;
51332;SDS011;37417;48.118;11.734;2023-05-19T12:04:09;5.60;;;2.15;;
51332;SDS011;37417;48.118;11.734;2023-05-19T12:06:55;2.88;;;1.80;;
51332;SDS011;37417;48.118;11.734;2023-05-19T12:09:41;4.55;;;2.33;;
51332;SDS011;37417;48.118;11.734;2023-05-19T12:12:28;1.80;;;1.67;;
51332;SDS011;37417;48.118;11.734;2023-05-19T12:15:13;6.68;;;2.78;;
51332;SDS011;37417;48.118;11.734;2023-05-19T12:18:01;2.10;;;1.92;;
51332;SDS011;37417;48.118;11.734;2023-05-19T12:20:47;2.75;;;2.30;;
51332;SDS011;37417;48.118;11.734;2023-05-19T12:23:33;2.15;;;2.00;;
51332;SDS011;37417;48.118;11.734;2023-05-19T12:26:19;6.00;;;2.22;;
51332;SDS011;37417;48.118;11.734;2023-05-19T12:29:06;2.72;;;2.40;;
51332;SDS011;37417;48.118;11.734;2023-05-19T12:31:52;2.92;;;2.63;;
51332;SDS011;37417;48.118;11.734;2023-05-19T12:34:38;4.65;;;1.98;;
51332;SDS011;37417;48.118;11.734;2023-05-19T12:37:26;4.03;;;2.42;;
51332;SDS011;37417;48.118;11.734;2023-05-19T12:40:14;2.50;;;2.22;;
51332;SDS011;37417;48.118;11.734;2023-05-19T12:43:01;3.22;;;2.75;;
51332;SDS011;37417;48.118;11.734;2023-05-19T12:45:47;2.42;;;2.15;;
51332;SDS011;37417;48.118;11.734;2023-05-19T12:48:33;1.88;;;1.58;;
51332;SDS011;37417;48.118;11.734;2023-05-19T12:51:19;3.22;;;1.83;;
51332;SDS011;37417;48.118;11.734;2023-05-19T12:54:05;3.97;;;2.38;;
51332;SDS011;37417;48.118;11.734;2023-05-19T12:56:50;2.88;;;2.58;;
51332;SDS011;37417;48.118;11.734;2023-05-19T12:59:36;2.88;;;2.50;;
51332;SDS011;37417;48.118;11.734;2023-05-19T13:02:22;3.13;;;1.77;;
51332;SDS011;37417;48.118;11.734;2023-05-19T13:05:08;2.10;;;1.90;;
51332;SDS011;37417;48.118;11.734;2023-05-19T13:07:57;5.10;;;2.58;;
51332;SDS011;37417;48.118;11.734;2023-05-19T13:10:46;2.80;;;1.95;;
51332;SDS011;37417;48.118;11.734;2023-05-19T13:13:33;2.33;;;1.95;;
51332;SDS011;37417;48.118;11.734;2023-05-19T13:16:19;2.55;;;2.10;;
51332;SDS011;37417;48.118;11.734;2023-05-19T13:19:05;3.03;;;2.65;;
51332;SDS011;37417;48.118;11.734;2023-05-19T13:21:50;2.72;;;1.85;;
51332;SDS011;37417;48.118;11.734;2023-05-19T13:24:36;3.35;;;2.10;;
51332;SDS011;37417;48.118;11.734;2023-05-19T13:27:22;2.22;;;2.00;;
51332;SDS011;37417;48.118;11.734;2023-05-19T13:30:09;2.95;;;2.20;;
51332;SDS011;37417;48.118;11.734;2023-05-19T13:32:55;2.22;;;1.83;;
51332;SDS011;37417;48.118;11.734;2023-05-19T13:35:41;3.30;;;1.63;;
51332;SDS011;37417;48.118;11.734;2023-05-19T13:38:26;1.55;;;1.45;;
51332;SDS011;37417;48.118;11.734;2023-05-19T13:41:14;2.92;;;2.10;;
51332;SDS011;37417;48.118;11.734;2023-05-19T13:44:00;1.83;;;1.50;;
51332;SDS011;37417;48.118;11.734;2023-05-19T13:46:45;3.80;;;1.80;;
51332;SDS011;37417;48.118;11.734;2023-05-19T13:49:31;3.05;;;1.80;;
51332;SDS011;37417;48.118;11.734;2023-05-19T13:52:17;3.58;;;2.05;;
51332;SDS011;37417;48.118;11.734;2023-05-19T13:55:05;2.08;;;1.88;;
51332;SDS011;37417;48.118;11.734;2023-05-19T13:57:52;1.95;;;1.70;;
51332;SDS011;37417;48.118;11.734;2023-05-19T14:00:37;2.15;;;1.85;;
51332;SDS011;37417;48.118;11.734;2023-05-19T14:03:24;1.80;;;1.70;;
51332;SDS011;37417;48.118;11.734;2023-05-19T14:06:10;2.92;;;1.80;;
51332;SDS011;37417;48.118;11.734;2023-05-19T14:08:56;1.42;;;1.33;;
51332;SDS011;37417;48.118;11.734;2023-05-19T14:11:42;9.70;;;2.40;;
51332;SDS011;37417;48.118;11.734;2023-05-19T14:14:28;2.78;;;2.50;;
51332;SDS011;37417;48.118;11.734;2023-05-19T14:17:14;4.30;;;1.85;;
51332;SDS011;37417;48.118;11.734;2023-05-19T14:19:59;2.33;;;1.88;;
51332;SDS011;37417;48.118;11.734;2023-05-19T14:22:45;3.72;;;1.77;;
51332;SDS011;37417;48.118;11.734;2023-05-19T14:25:31;3.00;;;2.00;;
51332;SDS011;37417;48.118;11.734;2023-05-19T14:28:17;1.73;;;1.60;;
51332;SDS011;37417;48.118;11.734;2023-05-19T14:31:03;2.45;;;1.95;;
51332;SDS011;37417;48.118;11.734;2023-05-19T14:33:50;2.95;;;2.13;;
51332;SDS011;37417;48.118;11.734;2023-05-19T14:36:36;1.77;;;1.67;;
51332;SDS011;37417;48.118;11.734;2023-05-19T14:39:24;5.32;;;3.13;;
51332;SDS011;37417;48.118;11.734;2023-05-19T14:42:10;2.85;;;2.58;;
51332;SDS011;37417;48.118;11.734;2023-05-19T14:44:55;2.67;;;2.25;;
51332;SDS011;37417;48.118;11.734;2023-05-19T14:47:41;4.55;;;2.63;;
51332;SDS011;37417;48.118;11.734;2023-05-19T14:50:27;4.43;;;3.00;;
51332;SDS011;37417;48.118;11.734;2023-05-19T14:53:13;4.05;;;2.88;;
51332;SDS011;37417;48.118;11.734;2023-05-19T14:55:59;4.40;;;3.03;;
51332;SDS011;37417;48.118;11.734;2023-05-19T14:58:45;4.13;;;3.25;;
51332;SDS011;37417;48.118;11.734;2023-05-19T15:01:30;2.30;;;2.10;;
51332;SDS011;37417;48.118;11.734;2023-05-19T15:04:16;4.20;;;2.65;;
51332;SDS011;37417;48.118;11.734;2023-05-19T15:07:02;3.08;;;2.40;;
51332;SDS011;37417;48.118;11.734;2023-05-19T15:09:47;3.30;;;1.85;;
51332;SDS011;37417;48.118;11.734;2023-05-19T15:12:33;2.88;;;2.03;;
51332;SDS011;37417;48.118;11.734;2023-05-19T15:15:19;3.13;;;2.20;;
51332;SDS011;37417;48.118;11.734;2023-05-19T15:18:04;4.05;;;2.50;;
51332;SDS011;37417;48.118;11.734;2023-05-19T15:20:50;2.55;;;1.77;;
51332;SDS011;37417;48.118;11.734;2023-05-19T15:23:36;2.92;;;2.30;;
51332;SDS011;37417;48.118;11.734;2023-05-19T15:26:21;3.72;;;2.35;;
51332;SDS011;37417;48.118;11.734;2023-05-19T15:29:07;3.22;;;2.63;;
51332;SDS011;37417;48.118;11.734;2023-05-19T15:31:53;10.18;;;2.83;;
51332;SDS011;37417;48.118;11.734;2023-05-19T15:34:38;3.22;;;2.65;;
51332;SDS011;37417;48.118;11.734;2023-05-19T15:37:24;4.18;;;3.20;;
51332;SDS011;37417;48.118;11.734;2023-05-19T15:40:10;4.57;;;2.70;;
51332;SDS011;37417;48.118;11.734;2023-05-19T15:42:56;4.10;;;2.83;;
51332;SDS011;37417;48.118;11.734;2023-05-19T15:45:41;2.05;;;1.67;;
51332;SDS011;37417;48.118;11.734;2023-05-19T15:48:27;2.08;;;1.92;;
51332;SDS011;37417;48.118;11.734;2023-05-19T15:51:13;3.10;;;2.35;;
51332;SDS011;37417;48.118;11.734;2023-05-19T15:53:59;3.53;;;2.75;;
51332;SDS011;37417;48.118;11.734;2023-05-19T15:56:44;3.47;;;2.42;;
51332;SDS011;37417;48.118;11.734;2023-05-19T15:59:30;4.57;;;2.28;;
51332;SDS011;37417;48.118;11.734;2023-05-19T16:02:16;2.67;;;2.03;;
51332;SDS011;37417;48.118;11.734;2023-05-19T16:05:01;4.78;;;2.83;;
51332;SDS011;37417;48.118;11.734;2023-05-19T16:07:47;1.70;;;1.52;;
51332;SDS011;37417;48.118;11.734;2023-05-19T16:10:33;2.47;;;1.83;;
51332;SDS011;37417;48.118;11.734;2023-05-19T16:13:18;2.90;;;2.08;;
51332;SDS011;37417;48.118;11.734;2023-05-19T16:16:04;4.10;;;1.92;;
51332;SDS011;37417;48.118;11.734;2023-05-19T16:18:50;3.55;;;2.35;;
51332;SDS011;37417;48.118;11.734;2023-05-19T16:21:36;3.20;;;2.83;;
51332;SDS011;37417;48.118;11.734;2023-05-19T16:24:21;2.35;;;1.90;;
51332;SDS011;37417;48.118;11.734;2023-05-19T16:27:07;4.13;;;2.03;;
51332;SDS011;37417;48.118;11.734;2023-05-19T16:29:53;3.38;;;2.00;;
51332;SDS011;37417;48.118;11.734;2023-05-19T16:32:39;3.22;;;2.50;;
51332;SDS011;37417;48.118;11.734;2023-05-19T16:35:25;3.58;;;1.98;;
51332;SDS011;37417;48.118;11.734;2023-05-19T16:38:13;1.80;;;1.70;;
51332;SDS011;37417;48.118;11.734;2023-05-19T16:40:59;1.63;;;1.52;;
51332;SDS011;37417;48.118;11.734;2023-05-19T16:43:44;2.25;;;1.75;;
51332;SDS011;37417;48.118;11.734;2023-05-19T16:46:30;2.72;;;1.17;;
51332;SDS011;37417;48.118;11.734;2023-05-19T16:49:17;1.83;;;1.45;;
51332;SDS011;37417;48.118;11.734;2023-05-19T16:52:03;2.40;;;1.70;;
51332;SDS011;37417;48.118;11.734;2023-05-19T16:54:49;3.08;;;1.88;;
51332;SDS011;37417;48.118;11.734;2023-05-19T16:57:34;1.73;;;1.27;;
51332;SDS011;37417;48.118;11.734;2023-05-19T17:00:20;3.20;;;1.77;;
51332;SDS011;37417;48.118;11.734;2023-05-19T17:03:06;2.80;;;2.47;;